Saipan Mariana Islands, Northern Mariana Islands
Current Conditions -  °F | °C
As of 1:54 PM on Thursday 27 Nov 2014 (Local Time) from PGSN Reporting Station
Few Clouds Few Clouds  
Wind Chill: 86°   Ceiling: Unl
Heat Index: 94°   Visibility: 10mi
Dew Point: 74°   Wind: 16mph
Humidity: 67%   Direction: 70°ENE
Pressure: 29.84"   Gusts: NA
Location:  15.182°N, 145.755°E
Report Text: PGSN 270354Z 07014KT 10SM FEW025 30/23 A2984 RMK AO2 SLP126 T03000233 PNO $
Loading
Personal Weather Stations






























Interactive Weather Map New forecast layout! Learn more

10-Day Weather Forecast

Advertisements
Track Severe Weather on mobile